createdAt,value
2018-10-03T00:00:41.109Z,87.38
2018-10-03T00:03:18.339Z,87.49
2018-10-03T00:05:48.045Z,87.41
2018-10-03T00:08:18.042Z,88.45
2018-10-03T00:10:47.837Z,88.04
2018-10-03T00:13:17.816Z,87.71
2018-10-03T00:15:47.838Z,87.50
2018-10-03T00:18:17.991Z,87.38
2018-10-03T00:20:47.769Z,87.73
2018-10-03T00:23:18.624Z,88.85
2018-10-03T00:25:48.656Z,87.23
2018-10-03T00:28:18.520Z,89.57
2018-10-03T00:30:48.342Z,88.82
2018-10-03T00:33:18.095Z,87.77
2018-10-03T00:35:48.072Z,87.63
2018-10-03T00:38:17.895Z,87.67
2018-10-03T00:40:47.807Z,87.34
2018-10-03T00:43:18.424Z,88.68
2018-10-03T00:45:48.131Z,88.65
2018-10-03T00:48:17.889Z,87.57
2018-10-03T00:50:47.779Z,87.11
2018-10-03T00:53:17.766Z,89.12
2018-10-03T00:55:47.523Z,89.10
2018-10-03T00:58:17.414Z,88.43
2018-10-03T01:00:47.410Z,89.19
2018-10-03T01:03:17.283Z,88.65
2018-10-03T01:05:47.060Z,88.64
2018-10-03T01:08:16.956Z,88.95
2018-10-03T01:10:46.763Z,89.21
2018-10-03T01:13:16.761Z,87.75
2018-10-03T01:15:46.531Z,88.21
2018-10-03T01:18:16.245Z,88.67
2018-10-03T01:20:45.995Z,89.03
2018-10-03T01:23:15.788Z,88.56
2018-10-03T01:25:45.565Z,88.20
2018-10-03T01:28:15.525Z,88.58
2018-10-03T01:30:45.435Z,88.46
2018-10-03T01:33:15.424Z,88.79
2018-10-03T01:35:45.704Z,88.52
2018-10-03T01:38:15.514Z,88.53
2018-10-03T01:40:45.407Z,89.20
2018-10-03T01:43:15.428Z,89.94
2018-10-03T01:45:45.246Z,88.84
2018-10-03T01:48:15.276Z,89.97
2018-10-03T01:50:45.016Z,89.74
2018-10-03T01:53:14.777Z,89.83
2018-10-03T01:55:44.615Z,88.69
2018-10-03T01:58:14.905Z,89.76
2018-10-03T02:00:46.951Z,89.65
2018-10-03T02:03:16.716Z,90.28
2018-10-03T02:05:46.610Z,89.78
2018-10-03T02:08:16.360Z,89.92
2018-10-03T02:10:46.241Z,90.89
2018-10-03T02:13:16.110Z,89.82
2018-10-03T02:15:45.999Z,90.10
2018-10-03T02:18:15.669Z,88.90
2018-10-03T02:20:45.429Z,88.85
2018-10-03T02:23:15.320Z,88.72
2018-10-03T02:25:45.156Z,89.48
2018-10-03T02:28:15.036Z,89.13
2018-10-03T02:30:44.807Z,89.67
2018-10-03T02:33:14.738Z,88.91
2018-10-03T02:35:44.516Z,90.00
2018-10-03T02:38:14.419Z,89.10
2018-10-03T02:40:44.232Z,89.08
2018-10-03T02:43:14.070Z,88.64
2018-10-03T02:45:43.886Z,88.81
2018-10-03T02:48:13.615Z,88.62
2018-10-03T02:50:43.731Z,88.54
2018-10-03T02:53:13.551Z,89.05
2018-10-03T02:55:43.325Z,88.62
2018-10-03T02:58:13.075Z,88.85
2018-10-03T03:00:42.899Z,89.64
2018-10-03T03:03:13.020Z,89.22
2018-10-03T03:05:42.932Z,89.78
2018-10-03T03:08:12.736Z,90.06
2018-10-03T03:10:42.553Z,89.50
2018-10-03T03:13:12.415Z,89.58
2018-10-03T03:15:42.646Z,89.63
2018-10-03T03:18:12.465Z,89.21
2018-10-03T03:20:42.211Z,89.29
2018-10-03T03:23:12.061Z,89.38
2018-10-03T03:25:41.847Z,90.48
2018-10-03T03:28:11.711Z,90.60
2018-10-03T03:30:41.601Z,89.39
2018-10-03T03:33:11.477Z,90.31
2018-10-03T03:35:41.287Z,90.62
2018-10-03T03:38:11.219Z,91.30
2018-10-03T03:40:40.984Z,90.70
2018-10-03T03:43:10.730Z,90.39
2018-10-03T03:45:40.472Z,90.65
2018-10-03T03:48:10.246Z,90.82
2018-10-03T03:50:40.552Z,90.63
2018-10-03T03:53:10.383Z,90.22
2018-10-03T03:55:40.320Z,90.24
2018-10-03T03:58:10.011Z,90.46
2018-10-03T04:00:39.784Z,89.96
2018-10-03T04:03:09.621Z,89.88
2018-10-03T04:05:39.379Z,91.26
2018-10-03T04:08:09.409Z,90.59
2018-10-03T04:10:39.224Z,91.54
2018-10-03T04:13:08.950Z,90.90
2018-10-03T04:15:39.120Z,90.76
2018-10-03T04:18:08.924Z,90.69
2018-10-03T04:20:38.733Z,91.54
2018-10-03T04:23:08.483Z,90.26
2018-10-03T04:25:38.292Z,90.68
2018-10-03T04:28:08.077Z,90.08
2018-10-03T04:30:37.754Z,92.07
2018-10-03T04:33:07.559Z,91.31
2018-10-03T04:35:37.484Z,91.54
2018-10-03T04:38:07.183Z,91.46
2018-10-03T04:40:36.999Z,91.08
2018-10-03T04:43:07.893Z,90.24
2018-10-03T04:45:37.651Z,90.33
2018-10-03T04:48:07.765Z,91.85
2018-10-03T04:50:37.523Z,91.26
2018-10-03T04:53:07.390Z,91.39
2018-10-03T04:55:37.199Z,91.69
2018-10-03T04:58:07.170Z,91.79
2018-10-03T05:00:36.895Z,91.60
2018-10-03T05:03:07.122Z,91.96
2018-10-03T05:05:36.908Z,90.95
2018-10-03T05:08:06.655Z,91.31
2018-10-03T05:10:36.476Z,91.67
2018-10-03T05:13:06.354Z,91.52
2018-10-03T05:15:36.097Z,91.52
2018-10-03T05:18:05.999Z,91.27
2018-10-03T05:20:35.833Z,91.18
2018-10-03T05:23:05.600Z,92.01
2018-10-03T05:25:35.376Z,90.73
2018-10-03T05:28:05.151Z,90.95
2018-10-03T05:30:34.897Z,90.30
2018-10-03T05:33:04.706Z,90.55
2018-10-03T05:35:34.413Z,89.56
2018-10-03T05:38:04.198Z,89.90
2018-10-03T05:40:33.927Z,90.35
2018-10-03T05:43:03.851Z,91.37
2018-10-03T05:45:33.633Z,90.90
2018-10-03T05:48:03.432Z,91.32
2018-10-03T05:50:33.296Z,90.42
2018-10-03T05:53:03.173Z,90.31
2018-10-03T05:55:32.919Z,90.72
2018-10-03T05:58:03.721Z,90.92
2018-10-03T06:00:41.634Z,90.39
2018-10-03T06:03:11.400Z,90.00
2018-10-03T06:05:42.205Z,90.70
2018-10-03T06:08:11.981Z,90.90
2018-10-03T06:10:41.695Z,90.20
2018-10-03T06:13:11.461Z,90.83
2018-10-03T06:15:41.276Z,91.12
2018-10-03T06:18:11.165Z,90.47
2018-10-03T06:20:41.239Z,91.07
2018-10-03T06:23:11.137Z,90.16
2018-10-03T06:25:41.001Z,90.44
2018-10-03T06:28:11.247Z,90.11
2018-10-03T06:30:44.798Z,89.77
2018-10-03T06:33:14.698Z,90.24
2018-10-03T06:35:45.189Z,89.58
2018-10-03T06:38:14.972Z,90.31
2018-10-03T06:40:44.925Z,91.01
2018-10-03T06:43:14.922Z,91.98
2018-10-03T06:45:44.782Z,91.52
2018-10-03T06:48:14.736Z,90.42
2018-10-03T06:50:44.620Z,90.38
2018-10-03T06:53:14.589Z,90.22
2018-10-03T06:55:44.843Z,90.04
2018-10-03T06:58:14.672Z,89.84
2018-10-03T07:00:44.558Z,89.53
2018-10-03T07:03:14.425Z,89.14
2018-10-03T07:05:44.209Z,88.91
2018-10-03T07:08:14.183Z,89.27
2018-10-03T07:10:44.064Z,89.18
2018-10-03T07:13:14.044Z,89.70
2018-10-03T07:15:44.271Z,87.58
2018-10-03T07:18:14.350Z,89.08
2018-10-03T07:20:45.119Z,89.07
2018-10-03T07:23:14.896Z,89.97
2018-10-03T07:25:44.724Z,89.34
2018-10-03T07:28:14.543Z,89.54
2018-10-03T07:30:44.517Z,89.98
2018-10-03T07:33:14.444Z,88.48
2018-10-03T07:35:44.521Z,88.77
2018-10-03T07:38:14.481Z,89.09
2018-10-03T07:40:44.428Z,88.84
2018-10-03T07:43:14.303Z,88.85
2018-10-03T07:45:44.179Z,88.14
2018-10-03T07:48:14.139Z,87.81
2018-10-03T07:50:43.962Z,88.40
2018-10-03T07:53:13.795Z,87.77
2018-10-03T07:55:43.686Z,87.25
2018-10-03T07:58:13.730Z,87.15
2018-10-03T08:00:43.439Z,86.82
2018-10-03T08:03:14.911Z,86.48
2018-10-03T08:05:44.825Z,87.32
2018-10-03T08:08:14.597Z,87.01
2018-10-03T08:10:44.609Z,87.04
2018-10-03T08:16:24.086Z,85.28
2018-10-03T08:18:54.282Z,85.15
2018-10-03T08:21:31.433Z,84.84
2018-10-03T09:24:12.792Z,71.72
2018-10-03T09:26:42.769Z,72.63
2018-10-03T09:32:36.225Z,72.09
2018-10-03T09:37:01.958Z,70.94
2018-10-03T09:39:50.170Z,70.98
2018-10-03T09:42:19.868Z,72.94
2018-10-03T09:44:49.572Z,71.75
2018-10-03T09:47:19.645Z,72.92
2018-10-03T09:49:49.731Z,71.23
2018-10-03T09:52:19.414Z,66.56
2018-10-03T09:54:49.472Z,67.44
2018-10-03T09:57:19.587Z,68.53
2018-10-03T09:59:49.747Z,68.14
2018-10-03T10:02:19.577Z,70.09
2018-10-03T10:04:49.268Z,68.93
2018-10-03T10:07:19.027Z,68.58
2018-10-03T10:09:48.851Z,67.46
2018-10-03T10:12:18.514Z,68.93
2018-10-03T10:14:48.208Z,68.19
2018-10-03T10:17:18.090Z,69.26
2018-10-03T10:19:47.883Z,69.52
2018-10-03T10:22:17.579Z,67.31
2018-10-03T10:24:47.248Z,67.14
2018-10-03T10:27:17.325Z,67.21
2018-10-03T10:29:47.064Z,67.43
2018-10-03T10:32:18.111Z,68.44
2018-10-03T10:34:47.818Z,67.47
2018-10-03T10:37:18.319Z,65.03
2018-10-03T10:39:48.044Z,67.41
2018-10-03T10:42:17.865Z,67.42
2018-10-03T10:44:47.681Z,65.79
2018-10-03T10:47:20.816Z,67.46
2018-10-03T10:49:51.004Z,66.72
2018-10-03T10:52:24.870Z,67.32
2018-10-03T10:54:54.988Z,67.22
2018-10-03T10:57:27.933Z,65.69
2018-10-03T10:59:57.813Z,64.81
2018-10-03T11:02:27.643Z,65.11
2018-10-03T11:04:57.539Z,64.19
2018-10-03T11:07:28.307Z,64.27
2018-10-03T11:09:58.080Z,61.63
2018-10-03T11:12:27.961Z,63.46
2018-10-03T11:14:57.825Z,61.42
2018-10-03T11:17:27.635Z,62.35
2018-10-03T11:19:57.692Z,62.86
2018-10-03T11:22:27.656Z,65.05
2018-10-03T11:24:57.757Z,65.36
2018-10-03T11:27:27.443Z,64.80
2018-10-03T11:29:57.355Z,65.47
2018-10-03T11:32:38.702Z,65.12
2018-10-03T11:35:08.434Z,65.73
2018-10-03T11:37:38.447Z,65.18
2018-10-03T11:40:08.936Z,64.78
2018-10-03T11:42:39.479Z,64.94
2018-10-03T11:45:09.644Z,64.34
2018-10-03T11:47:39.836Z,64.64
2018-10-03T11:50:09.683Z,64.16
2018-10-03T11:52:39.419Z,65.30
2018-10-03T11:55:09.376Z,63.89
2018-10-03T11:57:39.072Z,63.78
2018-10-03T12:00:08.800Z,63.36
2018-10-03T12:02:38.918Z,62.46
2018-10-03T12:05:08.695Z,61.95
2018-10-03T12:07:38.547Z,61.69
2018-10-03T12:10:19.644Z,63.46
2018-10-03T12:12:49.840Z,61.55
2018-10-03T12:15:19.908Z,59.72
2018-10-03T12:17:49.775Z,60.96
2018-10-03T12:20:19.670Z,60.16
2018-10-03T12:22:49.472Z,58.38
2018-10-03T12:25:20.083Z,61.12
2018-10-03T12:27:49.824Z,59.23
2018-10-03T12:30:20.187Z,59.24
2018-10-03T12:32:49.929Z,59.10
2018-10-03T12:35:24.954Z,58.19
2018-10-03T12:37:54.643Z,58.03
2018-10-03T12:40:24.711Z,59.36
2018-10-03T12:42:54.566Z,59.99
2018-10-03T12:45:24.520Z,60.71
2018-10-03T12:47:54.512Z,59.71
2018-10-03T12:50:24.518Z,59.66
2018-10-03T12:52:54.642Z,59.86
2018-10-03T12:55:24.796Z,59.99
2018-10-03T12:57:54.579Z,59.21
2018-10-03T13:00:28.353Z,59.35
2018-10-03T13:02:58.539Z,60.10
2018-10-03T13:05:28.371Z,59.89
2018-10-03T13:07:58.487Z,61.57
2018-10-03T13:10:28.675Z,59.81
2018-10-03T13:12:58.452Z,58.51
2018-10-03T13:15:28.379Z,59.36
2018-10-03T13:17:58.231Z,59.69
2018-10-03T13:20:28.027Z,57.98
2018-10-03T13:22:57.744Z,58.74
2018-10-03T13:25:27.683Z,59.17
2018-10-03T13:27:57.416Z,57.15
2018-10-03T13:30:27.539Z,59.01
2018-10-03T13:32:57.469Z,59.13
2018-10-03T13:35:27.456Z,59.94
2018-10-03T13:37:57.419Z,57.41
2018-10-03T13:40:27.423Z,56.76
2018-10-03T13:42:57.493Z,57.41
2018-10-03T13:45:27.288Z,58.31
2018-10-03T13:47:57.186Z,58.85
2018-10-03T13:50:27.400Z,57.58
2018-10-03T13:52:57.217Z,57.68
2018-10-03T13:55:26.909Z,55.58
2018-10-03T13:57:56.888Z,58.67
2018-10-03T14:00:26.547Z,53.84
2018-10-03T14:02:56.336Z,55.88
2018-10-03T14:05:25.990Z,55.40
2018-10-03T14:07:55.987Z,55.60
2018-10-03T14:10:25.898Z,57.41
2018-10-03T14:12:55.920Z,54.08
2018-10-03T14:15:25.640Z,53.19
2018-10-03T14:17:55.327Z,52.54
2018-10-03T14:20:26.266Z,52.08
2018-10-03T14:22:56.260Z,51.86
2018-10-03T14:25:26.171Z,52.53
2018-10-03T14:27:55.959Z,53.17
2018-10-03T14:30:25.946Z,52.98
2018-10-03T14:32:55.685Z,53.02
2018-10-03T14:35:25.355Z,51.80
2018-10-03T14:37:55.334Z,51.69
2018-10-03T14:40:25.217Z,52.88
2018-10-03T14:42:55.107Z,52.51
2018-10-03T14:45:24.934Z,51.99
2018-10-03T14:47:54.603Z,53.57
2018-10-03T14:50:24.281Z,51.99
2018-10-03T14:52:53.983Z,52.58
2018-10-03T14:55:23.734Z,51.25
2018-10-03T14:57:53.704Z,51.47
2018-10-03T15:00:23.694Z,51.65
2018-10-03T15:02:53.668Z,52.11
2018-10-03T15:05:23.402Z,53.62
2018-10-03T15:07:53.211Z,54.20
2018-10-03T15:10:23.128Z,53.62
2018-10-03T15:12:52.973Z,54.70
2018-10-03T15:15:22.668Z,54.67
2018-10-03T15:17:52.423Z,54.71
2018-10-03T15:20:22.394Z,56.70
2018-10-03T15:22:52.386Z,54.74
2018-10-03T15:25:22.167Z,54.24
2018-10-03T15:27:52.443Z,54.32
2018-10-03T15:30:22.157Z,56.51
2018-10-03T15:32:51.906Z,56.55
2018-10-03T15:35:22.498Z,57.02
2018-10-03T15:40:41.955Z,56.10
2018-10-03T15:43:13.757Z,56.81
2018-10-03T15:45:43.981Z,57.32
2018-10-03T15:48:16.130Z,57.48
2018-10-03T15:50:46.195Z,57.72
2018-10-03T15:53:16.429Z,58.22
2018-10-03T15:55:46.521Z,58.36
2018-10-03T15:58:17.615Z,58.64
2018-10-03T16:00:47.327Z,57.70
2018-10-03T16:03:17.831Z,58.98
2018-10-03T16:05:52.097Z,58.14
2018-10-03T16:08:22.094Z,58.59
2018-10-03T16:10:51.842Z,59.82
2018-10-03T16:13:21.715Z,60.40
2018-10-03T16:15:51.618Z,59.48
2018-10-03T16:18:21.737Z,59.89
2018-10-03T16:20:51.522Z,59.85
2018-10-03T16:23:21.630Z,59.16
2018-10-03T16:25:51.597Z,60.93
2018-10-03T16:28:21.499Z,60.96
2018-10-03T16:30:51.485Z,59.86
2018-10-03T16:33:21.493Z,61.11
2018-10-03T16:35:51.195Z,62.84
2018-10-03T16:38:21.048Z,62.52
2018-10-03T16:40:51.971Z,62.99
2018-10-03T16:43:25.356Z,63.31
2018-10-03T16:45:55.288Z,63.62
2018-10-03T16:48:26.296Z,63.40
2018-10-03T16:50:56.350Z,64.83
2018-10-03T16:53:26.186Z,65.39
2018-10-03T16:55:55.974Z,65.40
2018-10-03T16:58:25.772Z,66.03
2018-10-03T17:00:55.651Z,66.92
2018-10-03T17:03:25.397Z,66.23
2018-10-03T17:05:59.200Z,67.30
2018-10-03T17:08:28.920Z,67.02
2018-10-03T17:10:58.825Z,67.81
2018-10-03T17:13:28.585Z,66.83
2018-10-03T17:15:58.432Z,67.08
2018-10-03T17:18:28.183Z,66.65
2018-10-03T17:20:58.201Z,68.36
2018-10-03T17:23:28.067Z,69.30
2018-10-03T17:25:58.082Z,69.94
2018-10-03T17:28:28.112Z,72.07
2018-10-03T17:30:57.886Z,71.42
2018-10-03T17:33:27.832Z,69.72
2018-10-03T17:35:57.758Z,70.33
2018-10-03T17:38:27.723Z,69.65
2018-10-03T17:40:57.525Z,69.30
2018-10-03T17:43:27.440Z,70.34
2018-10-03T17:45:57.165Z,71.18
2018-10-03T17:48:27.144Z,69.99
2018-10-03T17:50:56.866Z,70.05
2018-10-03T17:53:26.993Z,69.29
2018-10-03T17:55:56.978Z,69.86
2018-10-03T17:58:26.875Z,70.49
2018-10-03T18:00:56.835Z,71.50
2018-10-03T18:03:26.543Z,72.17
2018-10-03T18:05:56.396Z,72.31
2018-10-03T18:08:26.211Z,72.09
2018-10-03T18:10:56.044Z,73.02
2018-10-03T18:13:25.891Z,72.61
2018-10-03T18:15:55.734Z,72.35
2018-10-03T18:18:25.611Z,71.62
2018-10-03T18:20:55.406Z,70.99
2018-10-03T18:23:25.415Z,71.41
2018-10-03T18:25:55.388Z,71.37
2018-10-03T18:28:25.389Z,71.68
2018-10-03T18:30:56.939Z,70.90
2018-10-03T18:33:30.349Z,70.52
2018-10-03T18:36:01.863Z,70.35
2018-10-03T18:38:33.978Z,70.48
2018-10-03T18:41:03.875Z,69.93
2018-10-03T18:43:33.993Z,70.50
2018-10-03T18:46:07.088Z,72.96
2018-10-03T18:48:40.090Z,73.79
2018-10-03T18:51:12.804Z,74.61
2018-10-03T18:53:44.703Z,75.15
2018-10-03T18:56:16.945Z,74.77
2018-10-03T18:58:47.949Z,73.09
2018-10-03T19:01:18.685Z,73.34
2018-10-03T19:03:52.828Z,72.44
2018-10-03T19:06:23.859Z,72.47
2018-10-03T19:09:00.317Z,71.78
2018-10-03T19:11:30.900Z,71.87
2018-10-03T19:14:01.507Z,71.22
2018-10-03T19:16:32.040Z,71.14
2018-10-03T19:19:02.726Z,71.21
2018-10-03T19:21:33.293Z,71.76
2018-10-03T19:24:04.144Z,73.98
2018-10-03T19:26:37.043Z,75.56
2018-10-03T19:29:07.619Z,76.25
2018-10-03T19:31:38.224Z,77.11
2018-10-03T19:34:09.318Z,76.81
2018-10-03T19:36:40.776Z,77.54
2018-10-03T19:39:13.229Z,76.72
2018-10-03T19:41:45.328Z,75.42
2018-10-03T19:44:16.566Z,76.83
2018-10-03T19:46:47.449Z,76.08
2018-10-03T19:49:25.418Z,76.12
2018-10-03T19:51:55.916Z,77.01
2018-10-03T19:54:26.585Z,75.84
2018-10-03T19:56:56.756Z,75.14
2018-10-03T19:59:27.009Z,75.80
2018-10-03T20:01:56.836Z,74.64
2018-10-03T20:04:26.941Z,76.15
2018-10-03T20:06:56.710Z,75.61
2018-10-03T20:09:26.585Z,75.55
2018-10-03T20:11:57.613Z,74.10
2018-10-03T20:14:27.498Z,74.24
2018-10-03T20:16:57.337Z,75.86
2018-10-03T20:19:27.549Z,76.30
2018-10-03T20:21:57.303Z,75.54
2018-10-03T20:24:27.276Z,75.29
2018-10-03T20:26:57.041Z,76.50
2018-10-03T20:29:27.172Z,75.73
2018-10-03T20:31:57.476Z,76.27
2018-10-03T20:34:27.551Z,75.94
2018-10-03T20:36:57.226Z,76.41
2018-10-03T20:39:27.119Z,76.52
2018-10-03T20:41:56.894Z,77.24
2018-10-03T20:44:26.636Z,76.83
2018-10-03T20:46:56.419Z,76.20
2018-10-03T20:49:26.140Z,75.24
2018-10-03T20:51:55.999Z,74.85
2018-10-03T20:54:26.056Z,73.98
2018-10-03T20:56:55.964Z,73.45
2018-10-03T20:59:26.071Z,73.84
2018-10-03T21:01:55.844Z,74.64
2018-10-03T21:04:25.751Z,75.49
2018-10-03T21:06:55.707Z,75.02
2018-10-03T21:09:25.667Z,73.92
2018-10-03T21:11:55.470Z,75.27
2018-10-03T21:14:26.387Z,74.39
2018-10-03T21:16:56.328Z,73.98
2018-10-03T21:19:26.308Z,74.97
2018-10-03T21:21:56.208Z,74.32
2018-10-03T21:24:26.168Z,73.66
2018-10-03T21:26:56.175Z,74.21
2018-10-03T21:29:26.207Z,76.64
2018-10-03T21:31:56.125Z,76.68
2018-10-03T21:34:26.057Z,76.11
2018-10-03T21:36:55.980Z,75.58
2018-10-03T21:39:26.293Z,75.26
2018-10-03T21:41:56.236Z,75.03
2018-10-03T21:44:26.178Z,73.87
2018-10-03T21:46:56.050Z,74.21
2018-10-03T21:49:25.879Z,75.27
2018-10-03T21:51:55.908Z,75.83
2018-10-03T21:54:25.610Z,76.33
2018-10-03T21:56:55.572Z,76.06
2018-10-03T21:59:25.439Z,76.63
2018-10-03T22:01:56.429Z,77.75
2018-10-03T22:04:26.366Z,78.02
2018-10-03T22:06:56.084Z,76.27
2018-10-03T22:09:25.782Z,77.12
2018-10-03T22:11:55.744Z,76.46
2018-10-03T22:14:25.511Z,75.76
2018-10-03T22:16:55.475Z,74.85
2018-10-03T22:19:25.491Z,74.54
2018-10-03T22:21:55.179Z,75.40
2018-10-03T22:24:28.564Z,77.54
2018-10-03T22:26:58.324Z,76.67
2018-10-03T22:29:28.241Z,77.87
2018-10-03T22:31:57.936Z,76.88
2018-10-03T22:34:27.895Z,77.19
2018-10-03T22:36:57.764Z,78.10
2018-10-03T22:39:27.731Z,77.37
2018-10-03T22:41:57.713Z,77.58
2018-10-03T22:44:29.691Z,77.57
2018-10-03T22:46:59.603Z,76.88
2018-10-03T22:49:29.429Z,77.76
2018-10-03T22:51:59.359Z,75.94
2018-10-03T22:54:31.023Z,77.02
2018-10-03T22:57:02.831Z,77.37
2018-10-03T22:59:32.640Z,77.14
2018-10-03T23:02:02.332Z,78.05
2018-10-03T23:04:32.139Z,77.99
2018-10-03T23:07:01.832Z,78.26
2018-10-03T23:09:31.786Z,77.87
2018-10-03T23:12:01.456Z,77.76
2018-10-03T23:14:31.147Z,77.55
2018-10-03T23:17:05.068Z,77.54
2018-10-03T23:19:35.044Z,78.66
2018-10-03T23:22:05.011Z,78.70
2018-10-03T23:24:34.819Z,78.08
2018-10-03T23:27:04.758Z,78.46
2018-10-03T23:29:34.540Z,78.02
2018-10-03T23:32:04.297Z,78.82
2018-10-03T23:34:34.098Z,78.23
2018-10-03T23:37:04.167Z,77.28
2018-10-03T23:39:33.917Z,76.50
2018-10-03T23:42:03.771Z,78.22
2018-10-03T23:44:33.567Z,78.24
2018-10-03T23:47:03.283Z,78.31
2018-10-03T23:49:32.971Z,78.44
2018-10-03T23:52:02.643Z,77.24
2018-10-03T23:54:32.306Z,76.97
2018-10-03T23:57:07.762Z,78.60
2018-10-03T23:59:37.616Z,78.32
